Time;durP1;ratioP1;P1;durP2;ratioP2;P2;SDS_P1;SDS_P2;PMS_P1;PMS_P2;Temp;Humidity;BMP_temperature;BMP_pressure;BME280_temperature;BME280_humidity;BME280_pressure;Samples;Min_cycle;Max_cycle;Signal;HPM_P1;HPM_P2
2023/10/23 00:01:49;;;;;;;;;;;16.40;99.90;;;;;;5037014;28;19982;-61
2023/10/23 00:04:15;;;;;;;;;;;16.30;99.90;;;;;;5036895;28;19983;-64
2023/10/23 00:06:40;;;;;;;;;;;16.30;99.90;;;;;;5036748;28;19982;-62
2023/10/23 00:09:06;;;;;;;;;;;16.30;99.90;;;;;;5036965;28;20033;-63
2023/10/23 00:11:32;;;;;;;;;;;16.30;99.90;;;;;;5036542;28;20056;-63
2023/10/23 00:13:57;;;;;;;;;;;16.30;99.90;;;;;;5036507;28;20032;-62
2023/10/23 00:16:23;;;;;;;;;;;16.20;99.90;;;;;;5036690;28;20047;-63
2023/10/23 00:18:49;;;;;;;;;;;16.30;99.90;;;;;;5036554;28;20100;-62
2023/10/23 00:21:15;;;;;;;;;;;16.30;99.90;;;;;;5036769;28;20360;-65
2023/10/23 00:23:40;;;;;;;;;;;16.30;99.90;;;;;;5036278;28;20491;-65
2023/10/23 00:26:06;;;;;;;;;;;16.30;99.90;;;;;;5036532;28;20038;-65
2023/10/23 00:28:32;;;;;;;;;;;16.30;99.90;;;;;;5036387;28;19993;-61
2023/10/23 00:30:58;;;;;;;;;;;16.20;99.90;;;;;;5036110;28;20052;-64
2023/10/23 00:33:23;;;;;;;;;;;16.20;99.90;;;;;;5036603;28;20313;-64
2023/10/23 00:35:49;;;;;;;;;;;16.20;99.90;;;;;;5036298;28;20077;-65
2023/10/23 00:38:14;;;;;;;;;;;16.20;99.90;;;;;;5036005;28;19993;-64
2023/10/23 00:40:40;;;;;;;;;;;16.20;99.90;;;;;;5036084;28;19986;-61
2023/10/23 00:43:12;;;;;;;;;;;16.10;99.90;;;;;;5036179;28;19997;-64
2023/10/23 00:45:49;;;;;;;;;;;16.10;99.90;;;;;;5036261;28;19986;-64
2023/10/23 00:48:16;;;;;;;;;;;16.10;99.90;;;;;;5035995;28;19986;-62
2023/10/23 00:50:41;;;;;;;;;;;16.00;99.90;;;;;;5036512;28;20013;-64
2023/10/23 00:53:07;;;;;;;;;;;16.00;99.90;;;;;;5035766;28;20356;-65
2023/10/23 00:55:33;;;;;;;;;;;16.10;99.90;;;;;;5035793;28;19993;-63
2023/10/23 00:57:58;;;;;;;;;;;16.10;99.90;;;;;;5034921;28;20419;-64
2023/10/23 01:00:24;;;;;;;;;;;16.10;99.90;;;;;;5035969;28;20028;-64
2023/10/23 01:02:50;;;;;;;;;;;16.00;99.90;;;;;;5035690;28;20333;-62
2023/10/23 01:05:16;;;;;;;;;;;16.00;99.90;;;;;;5035722;28;20391;-63
2023/10/23 01:07:41;;;;;;;;;;;16.00;99.90;;;;;;5035647;28;19982;-62
2023/10/23 01:10:07;;;;;;;;;;;16.10;99.90;;;;;;5035519;28;19982;-61
2023/10/23 01:12:32;;;;;;;;;;;16.10;99.90;;;;;;5035216;28;20057;-64
2023/10/23 01:14:58;;;;;;;;;;;16.20;99.90;;;;;;5035535;28;19989;-63
2023/10/23 01:17:23;;;;;;;;;;;16.20;99.90;;;;;;5035330;28;20452;-62
2023/10/23 01:19:49;;;;;;;;;;;16.20;99.90;;;;;;5035251;28;20446;-63
2023/10/23 01:22:14;;;;;;;;;;;16.20;99.90;;;;;;5035444;28;20006;-63
2023/10/23 01:24:41;;;;;;;;;;;16.10;99.90;;;;;;5035297;28;20025;-64
2023/10/23 01:27:06;;;;;;;;;;;16.10;99.90;;;;;;5035425;28;20372;-62
2023/10/23 01:29:32;;;;;;;;;;;16.20;99.90;;;;;;5035337;28;19990;-62
2023/10/23 01:31:57;;;;;;;;;;;16.20;99.90;;;;;;5034997;28;20013;-62
2023/10/23 01:34:23;;;;;;;;;;;16.20;99.90;;;;;;5035177;28;19993;-63
2023/10/23 01:36:48;;;;;;;;;;;16.20;99.90;;;;;;5035015;28;19983;-62
2023/10/23 01:39:14;;;;;;;;;;;16.20;99.90;;;;;;5035084;28;19982;-63
2023/10/23 01:41:39;;;;;;;;;;;16.20;99.90;;;;;;5034651;28;19989;-61
2023/10/23 01:44:05;;;;;;;;;;;16.10;99.90;;;;;;5035038;28;19989;-62
2023/10/23 01:46:31;;;;;;;;;;;16.10;99.90;;;;;;5034771;28;20025;-63
2023/10/23 01:48:56;;;;;;;;;;;16.20;99.90;;;;;;5034761;28;19986;-62
2023/10/23 01:51:22;;;;;;;;;;;16.20;99.90;;;;;;5035042;28;20010;-62
2023/10/23 01:53:47;;;;;;;;;;;16.10;99.90;;;;;;5034819;28;20008;-64
2023/10/23 01:56:13;;;;;;;;;;;16.20;99.90;;;;;;5034732;28;20488;-63
2023/10/23 01:58:38;;;;;;;;;;;16.20;99.90;;;;;;5034680;28;20360;-62
2023/10/23 02:01:04;;;;;;;;;;;16.20;99.90;;;;;;5034565;28;20337;-62
2023/10/23 02:03:30;;;;;;;;;;;16.10;99.90;;;;;;5034590;28;20032;-63
2023/10/23 02:05:56;;;;;;;;;;;16.20;99.90;;;;;;5034437;28;19990;-61
2023/10/23 02:08:23;;;;;;;;;;;16.20;99.90;;;;;;5034464;28;19982;-64
2023/10/23 02:10:50;;;;;;;;;;;16.20;99.90;;;;;;5033160;28;20010;-61
2023/10/23 02:13:15;;;;;;;;;;;16.20;99.90;;;;;;5034300;28;20164;-60
2023/10/23 02:15:41;;;;;;;;;;;16.20;99.90;;;;;;5034781;28;20112;-63
2023/10/23 02:18:07;;;;;;;;;;;16.20;99.90;;;;;;5034381;28;20338;-62
2023/10/23 02:20:32;;;;;;;;;;;16.20;99.90;;;;;;5034063;28;20163;-62
2023/10/23 02:22:58;;;;;;;;;;;16.20;99.90;;;;;;5034262;28;19989;-64
2023/10/23 02:25:24;;;;;;;;;;;16.20;99.90;;;;;;5034080;28;20025;-62
2023/10/23 02:27:49;;;;;;;;;;;16.20;99.90;;;;;;5034322;28;19990;-64
2023/10/23 02:30:15;;;;;;;;;;;16.20;99.90;;;;;;5034098;28;20351;-61
2023/10/23 02:32:40;;;;;;;;;;;16.20;99.90;;;;;;5033999;28;20072;-62
2023/10/23 02:35:06;;;;;;;;;;;16.20;99.90;;;;;;5034224;28;19990;-64
2023/10/23 02:37:32;;;;;;;;;;;16.20;99.90;;;;;;5034187;28;20352;-62
2023/10/23 02:39:57;;;;;;;;;;;16.20;99.90;;;;;;5033784;28;20026;-63
2023/10/23 02:42:23;;;;;;;;;;;16.10;99.90;;;;;;5033983;28;19989;-63
2023/10/23 02:44:48;;;;;;;;;;;16.10;99.90;;;;;;5016197;28;19989;-61
2023/10/23 02:47:14;;;;;;;;;;;16.10;99.90;;;;;;5033987;28;20495;-65
2023/10/23 02:49:39;;;;;;;;;;;16.20;99.90;;;;;;5033827;28;20440;-61
2023/10/23 02:52:05;;;;;;;;;;;16.20;99.90;;;;;;5033591;28;20444;-63
2023/10/23 02:54:30;;;;;;;;;;;16.20;99.90;;;;;;5033530;28;19983;-62
2023/10/23 02:56:56;;;;;;;;;;;16.20;99.90;;;;;;5033897;28;19986;-61
2023/10/23 02:59:22;;;;;;;;;;;16.00;99.90;;;;;;5033671;28;19983;-64
2023/10/23 03:01:47;;;;;;;;;;;16.00;99.90;;;;;;5033904;28;20048;-64
2023/10/23 03:04:13;;;;;;;;;;;16.00;99.90;;;;;;5033617;28;20088;-64
2023/10/23 03:06:39;;;;;;;;;;;16.00;99.90;;;;;;5033607;28;20029;-64
2023/10/23 03:09:04;;;;;;;;;;;15.90;99.90;;;;;;5033372;28;20037;-61
2023/10/23 03:11:31;;;;;;;;;;;15.90;99.90;;;;;;5033515;28;20056;-64
2023/10/23 03:13:56;;;;;;;;;;;15.90;99.90;;;;;;5033519;28;20057;-61
2023/10/23 03:16:24;;;;;;;;;;;15.90;99.90;;;;;;5033598;28;20006;-61
2023/10/23 03:18:50;;;;;;;;;;;15.90;99.90;;;;;;5033452;28;20014;-64
2023/10/23 03:21:15;;;;;;;;;;;15.90;99.90;;;;;;5034161;28;20078;-63
2023/10/23 03:23:41;;;;;;;;;;;15.90;99.90;;;;;;5037316;28;19982;-63
2023/10/23 03:26:07;;;;;;;;;;;15.80;99.90;;;;;;5037559;28;19982;-63
2023/10/23 03:28:32;;;;;;;;;;;15.80;99.90;;;;;;5037555;28;19988;-64
2023/10/23 03:31:00;;;;;;;;;;;15.80;99.90;;;;;;5037217;28;20491;-63
2023/10/23 03:33:25;;;;;;;;;;;15.70;99.90;;;;;;5037679;28;20108;-62
2023/10/23 03:35:51;;;;;;;;;;;15.80;99.90;;;;;;5037406;28;20472;-63
2023/10/23 03:38:16;;;;;;;;;;;15.70;99.90;;;;;;5037052;28;20432;-64
2023/10/23 03:40:52;;;;;;;;;;;15.70;99.90;;;;;;5037238;28;20356;-62
2023/10/23 03:43:17;;;;;;;;;;;15.70;99.90;;;;;;5037270;28;20037;-62
2023/10/23 03:45:44;;;;;;;;;;;15.70;99.90;;;;;;5037374;28;20021;-61
2023/10/23 03:48:09;;;;;;;;;;;15.70;99.90;;;;;;5037237;28;19989;-61
2023/10/23 03:50:36;;;;;;;;;;;15.60;99.90;;;;;;5037016;28;20448;-63
2023/10/23 03:53:02;;;;;;;;;;;15.60;99.90;;;;;;5036795;28;19982;-61
2023/10/23 03:55:27;;;;;;;;;;;15.60;99.90;;;;;;5037129;28;19982;-62
2023/10/23 03:57:53;;;;;;;;;;;15.60;99.90;;;;;;5037008;28;20108;-64
2023/10/23 04:00:19;;;;;;;;;;;15.60;99.90;;;;;;5036926;28;20009;-61
2023/10/23 04:02:45;;;;;;;;;;;15.60;99.90;;;;;;5036778;28;19985;-63
2023/10/23 04:05:11;;;;;;;;;;;15.50;99.90;;;;;;5036782;28;19988;-61
2023/10/23 04:07:36;;;;;;;;;;;15.40;99.90;;;;;;5036639;28;20088;-60
2023/10/23 04:10:05;;;;;;;;;;;15.40;99.90;;;;;;5036603;28;19993;-64
2023/10/23 04:12:31;;;;;;;;;;;15.40;99.90;;;;;;5036690;28;20013;-61
2023/10/23 04:14:57;;;;;;;;;;;15.40;99.90;;;;;;5036660;28;19986;-62
2023/10/23 04:17:22;;;;;;;;;;;15.40;99.90;;;;;;5018730;28;20032;-61
2023/10/23 04:19:48;;;;;;;;;;;15.40;99.90;;;;;;5036446;28;20022;-61
2023/10/23 04:22:13;;;;;;;;;;;15.30;99.90;;;;;;5036379;28;19982;-64
2023/10/23 04:24:39;;;;;;;;;;;15.30;99.90;;;;;;5036356;28;20005;-62
2023/10/23 04:27:05;;;;;;;;;;;15.40;99.90;;;;;;5036470;28;19985;-61
2023/10/23 04:29:31;;;;;;;;;;;15.30;99.90;;;;;;5036311;28;20467;-62
2023/10/23 04:31:56;;;;;;;;;;;15.20;99.90;;;;;;5036209;28;20375;-62
2023/10/23 04:34:22;;;;;;;;;;;15.30;99.90;;;;;;5035258;28;20040;-64
2023/10/23 04:36:47;;;;;;;;;;;15.20;99.90;;;;;;5036139;28;19990;-62
2023/10/23 04:39:13;;;;;;;;;;;15.20;99.90;;;;;;5036197;28;20440;-62
2023/10/23 04:41:38;;;;;;;;;;;15.10;99.90;;;;;;5036121;28;20432;-63
2023/10/23 04:44:04;;;;;;;;;;;15.10;99.90;;;;;;5036150;28;20089;-62
2023/10/23 04:46:30;;;;;;;;;;;15.10;99.90;;;;;;5036146;28;20037;-62
2023/10/23 04:48:55;;;;;;;;;;;15.00;99.90;;;;;;5035955;28;20334;-64
2023/10/23 04:51:21;;;;;;;;;;;14.90;99.90;;;;;;5035667;28;20072;-61
2023/10/23 04:53:46;;;;;;;;;;;14.90;99.90;;;;;;5035994;28;20039;-61
2023/10/23 04:56:12;;;;;;;;;;;15.00;99.90;;;;;;5035840;28;19982;-61
2023/10/23 04:58:38;;;;;;;;;;;14.90;99.90;;;;;;5035675;28;20496;-61
2023/10/23 05:01:03;;;;;;;;;;;14.90;99.90;;;;;;5035757;28;20084;-62
2023/10/23 05:03:30;;;;;;;;;;;14.90;99.90;;;;;;5035611;28;20029;-63
2023/10/23 05:05:55;;;;;;;;;;;14.90;99.90;;;;;;5035926;28;20021;-63
2023/10/23 05:08:21;;;;;;;;;;;14.80;99.90;;;;;;5035646;28;20091;-63
2023/10/23 05:10:46;;;;;;;;;;;14.80;99.90;;;;;;5035441;28;20010;-63
2023/10/23 05:13:12;;;;;;;;;;;14.70;99.90;;;;;;5035363;28;20029;-60
2023/10/23 05:15:37;;;;;;;;;;;14.70;99.90;;;;;;5035443;28;20352;-62
2023/10/23 05:18:03;;;;;;;;;;;14.70;99.90;;;;;;5035378;28;20348;-62
2023/10/23 05:20:29;;;;;;;;;;;14.80;99.90;;;;;;5034967;28;20065;-63
2023/10/23 05:22:54;;;;;;;;;;;14.80;99.90;;;;;;5035392;28;20072;-62
2023/10/23 05:25:20;;;;;;;;;;;14.80;99.90;;;;;;5035331;28;19986;-64
2023/10/23 05:27:45;;;;;;;;;;;14.80;99.90;;;;;;5034771;28;19993;-63
2023/10/23 05:30:11;;;;;;;;;;;14.80;99.90;;;;;;5035212;28;20352;-62
2023/10/23 05:32:37;;;;;;;;;;;14.80;99.90;;;;;;5034881;28;20017;-63
2023/10/23 05:35:03;;;;;;;;;;;14.80;99.90;;;;;;5035145;28;19989;-63
2023/10/23 05:37:30;;;;;;;;;;;14.80;99.90;;;;;;5035076;28;20038;-63
2023/10/23 05:39:55;;;;;;;;;;;14.80;99.90;;;;;;5031319;28;19990;-64
2023/10/23 05:42:21;;;;;;;;;;;14.90;99.90;;;;;;5035144;28;20336;-63
2023/10/23 05:44:46;;;;;;;;;;;15.00;99.90;;;;;;5034822;28;19987;-66
2023/10/23 05:47:12;;;;;;;;;;;15.10;99.90;;;;;;5032335;28;19990;-64
2023/10/23 05:49:38;;;;;;;;;;;15.20;99.90;;;;;;5025259;28;20345;-64
2023/10/23 05:52:03;;;;;;;;;;;15.20;99.90;;;;;;5034842;28;20439;-62
2023/10/23 05:54:30;;;;;;;;;;;15.20;99.90;;;;;;5034447;28;19982;-63
2023/10/23 05:56:55;;;;;;;;;;;15.20;99.90;;;;;;5017345;28;19993;-63
2023/10/23 05:59:21;;;;;;;;;;;15.20;99.90;;;;;;5014016;28;20433;-63
2023/10/23 06:01:47;;;;;;;;;;;15.10;99.90;;;;;;5021625;28;20056;-63
2023/10/23 06:04:12;;;;;;;;;;;15.10;99.90;;;;;;5031991;28;19986;-63
2023/10/23 06:06:38;;;;;;;;;;;15.20;99.90;;;;;;5032624;28;19997;-66
2023/10/23 06:09:04;;;;;;;;;;;15.30;99.90;;;;;;5033646;28;20080;-65
2023/10/23 06:11:30;;;;;;;;;;;15.30;99.90;;;;;;5034093;28;20469;-64
2023/10/23 06:13:56;;;;;;;;;;;15.40;99.90;;;;;;5033946;28;19986;-63
2023/10/23 06:16:21;;;;;;;;;;;15.50;99.90;;;;;;5033538;28;20016;-61
2023/10/23 06:18:47;;;;;;;;;;;15.50;99.90;;;;;;5033904;28;20117;-63
2023/10/23 06:21:12;;;;;;;;;;;15.60;99.90;;;;;;5016994;28;19998;-66
2023/10/23 06:23:39;;;;;;;;;;;15.60;99.90;;;;;;5012335;28;19982;-68
2023/10/23 06:26:04;;;;;;;;;;;15.60;99.90;;;;;;5012555;28;20452;-62
2023/10/23 06:28:31;;;;;;;;;;;15.50;99.90;;;;;;5012591;28;19992;-67
2023/10/23 06:30:56;;;;;;;;;;;15.40;99.90;;;;;;5032038;28;20438;-66
2023/10/23 06:33:23;;;;;;;;;;;15.30;99.90;;;;;;5032657;28;20061;-65
2023/10/23 06:35:57;;;;;;;;;;;15.20;99.90;;;;;;5033421;28;20064;-64
2023/10/23 06:38:23;;;;;;;;;;;15.20;99.90;;;;;;5026546;28;19990;-62
2023/10/23 06:40:48;;;;;;;;;;;15.10;99.90;;;;;;5026014;28;19990;-63
2023/10/23 06:43:14;;;;;;;;;;;15.10;99.90;;;;;;5032445;28;20033;-65
2023/10/23 06:45:40;;;;;;;;;;;15.20;99.90;;;;;;5030035;28;20456;-63
2023/10/23 06:48:05;;;;;;;;;;;15.20;99.90;;;;;;5012106;28;19986;-64
2023/10/23 06:50:31;;;;;;;;;;;15.40;99.90;;;;;;5030094;28;20026;-63
2023/10/23 06:52:56;;;;;;;;;;;15.50;99.90;;;;;;5027109;28;19990;-64
2023/10/23 06:55:24;;;;;;;;;;;16.10;99.90;;;;;;5029335;28;19989;-66
2023/10/23 06:57:50;;;;;;;;;;;18.90;99.90;;;;;;5031687;28;19997;-69
2023/10/23 07:00:16;;;;;;;;;;;22.00;90.10;;;;;;5032978;28;19990;-64
2023/10/23 07:02:41;;;;;;;;;;;24.20;69.80;;;;;;5032918;28;19986;-62
2023/10/23 07:05:07;;;;;;;;;;;26.00;60.00;;;;;;5031228;28;20028;-66
2023/10/23 07:07:33;;;;;;;;;;;27.40;52.40;;;;;;5033295;28;19990;-60
2023/10/23 07:10:03;;;;;;;;;;;28.40;49.30;;;;;;5033751;28;19986;-67
2023/10/23 07:12:29;;;;;;;;;;;29.30;47.30;;;;;;5014686;28;20387;-64
2023/10/23 07:14:54;;;;;;;;;;;30.20;44.70;;;;;;5030600;28;20005;-61
2023/10/23 07:17:20;;;;;;;;;;;31.00;42.70;;;;;;5033210;28;19998;-66
2023/10/23 07:19:46;;;;;;;;;;;31.70;41.60;;;;;;5032625;28;20030;-65
2023/10/23 07:22:11;;;;;;;;;;;32.30;39.50;;;;;;5032329;28;20456;-65
2023/10/23 07:24:37;;;;;;;;;;;32.80;39.30;;;;;;5026326;28;20364;-66
2023/10/23 07:27:02;;;;;;;;;;;33.30;38.40;;;;;;5012799;28;20393;-60
2023/10/23 07:29:29;;;;;;;;;;;33.50;38.60;;;;;;5028737;28;20051;-66
2023/10/23 07:31:54;;;;;;;;;;;34.10;37.70;;;;;;5023052;28;20013;-62
2023/10/23 07:34:20;;;;;;;;;;;34.60;35.90;;;;;;5008034;28;20356;-63
2023/10/23 07:36:45;;;;;;;;;;;34.80;35.90;;;;;;5022355;28;21055;-64
2023/10/23 07:39:11;;;;;;;;;;;35.00;35.60;;;;;;5029796;28;19990;-63
2023/10/23 07:41:37;;;;;;;;;;;35.40;34.60;;;;;;5028934;28;19994;-62
2023/10/23 07:44:02;;;;;;;;;;;35.50;34.60;;;;;;5028975;28;19989;-63
2023/10/23 07:46:28;;;;;;;;;;;35.70;34.20;;;;;;5025627;28;19997;-65
2023/10/23 07:48:53;;;;;;;;;;;35.90;33.50;;;;;;5021815;28;19998;-64
2023/10/23 07:51:19;;;;;;;;;;;36.00;33.50;;;;;;5027837;28;20084;-63
2023/10/23 07:53:45;;;;;;;;;;;36.10;33.60;;;;;;5008531;28;20009;-65
2023/10/23 07:56:12;;;;;;;;;;;36.30;33.10;;;;;;5009133;28;19988;-67
2023/10/23 07:58:39;;;;;;;;;;;36.40;33.20;;;;;;5019716;28;20398;-63
2023/10/23 08:01:05;;;;;;;;;;;36.40;32.30;;;;;;5025024;28;19986;-63
2023/10/23 08:03:31;;;;;;;;;;;36.40;33.10;;;;;;5028575;28;19983;-65
2023/10/23 08:05:56;;;;;;;;;;;36.60;33.30;;;;;;5010252;28;20088;-64
2023/10/23 08:08:22;;;;;;;;;;;36.50;32.40;;;;;;5032365;28;19982;-63
2023/10/23 08:10:47;;;;;;;;;;;36.50;33.00;;;;;;5033927;28;20440;-66
2023/10/23 08:13:13;;;;;;;;;;;36.80;34.80;;;;;;5033626;28;19982;-63
2023/10/23 08:15:40;;;;;;;;;;;36.90;32.90;;;;;;5035119;28;20031;-65
2023/10/23 08:18:06;;;;;;;;;;;36.80;32.90;;;;;;5036008;28;20025;-66
2023/10/23 08:20:34;;;;;;;;;;;36.80;32.30;;;;;;5035804;28;20080;-64
2023/10/23 08:23:00;;;;;;;;;;;36.60;32.30;;;;;;5036158;28;19998;-64
2023/10/23 08:25:25;;;;;;;;;;;36.40;33.00;;;;;;5032398;28;20540;-63
2023/10/23 08:27:51;;;;;;;;;;;35.30;33.80;;;;;;5036355;28;20482;-64
2023/10/23 08:30:16;;;;;;;;;;;35.10;34.60;;;;;;5035104;28;20002;-69
2023/10/23 08:32:42;;;;;;;;;;;35.10;34.10;;;;;;5035961;28;20006;-66
2023/10/23 08:35:07;;;;;;;;;;;35.20;34.80;;;;;;5035757;28;19986;-64
2023/10/23 08:37:33;;;;;;;;;;;34.50;34.60;;;;;;5034121;28;19989;-63
2023/10/23 08:39:58;;;;;;;;;;;34.30;35.90;;;;;;5033309;28;19994;-66
2023/10/23 08:42:25;;;;;;;;;;;34.00;35.60;;;;;;5033911;28;20125;-71
2023/10/23 08:44:51;;;;;;;;;;;33.50;36.70;;;;;;5033960;28;20036;-64
2023/10/23 08:47:17;;;;;;;;;;;33.30;37.20;;;;;;5033965;28;20511;-65
2023/10/23 08:49:43;;;;;;;;;;;32.50;38.30;;;;;;5034004;28;20029;-64
2023/10/23 08:52:10;;;;;;;;;;;32.10;39.60;;;;;;5034294;28;20040;-65
2023/10/23 08:54:36;;;;;;;;;;;31.90;39.90;;;;;;5035496;28;19997;-66
2023/10/23 08:57:02;;;;;;;;;;;31.90;39.50;;;;;;5034355;28;20266;-65
2023/10/23 08:59:28;;;;;;;;;;;31.90;38.90;;;;;;5033470;28;19990;-66
2023/10/23 09:01:54;;;;;;;;;;;31.80;39.40;;;;;;5032859;28;19995;-64
2023/10/23 09:04:20;;;;;;;;;;;31.70;39.00;;;;;;5033440;28;19990;-63
2023/10/23 09:06:47;;;;;;;;;;;31.70;39.00;;;;;;5033966;28;20192;-62
2023/10/23 09:09:13;;;;;;;;;;;31.40;39.40;;;;;;5033900;28;19990;-67
2023/10/23 09:11:46;;;;;;;;;;;31.30;39.60;;;;;;5033312;28;20006;-63
2023/10/23 09:14:27;;;;;;;;;;;31.20;40.20;;;;;;5032479;28;19994;-59
2023/10/23 09:16:54;;;;;;;;;;;31.10;41.30;;;;;;5033710;28;20025;-65
2023/10/23 09:19:25;;;;;;;;;;;31.10;41.30;;;;;;5033229;28;20387;-66
2023/10/23 09:21:52;;;;;;;;;;;31.20;42.30;;;;;;5033710;28;19990;-67
2023/10/23 09:24:18;;;;;;;;;;;31.10;42.60;;;;;;5015976;28;20147;-61
2023/10/23 09:26:44;;;;;;;;;;;31.00;42.50;;;;;;5033515;28;20077;-65
2023/10/23 09:29:10;;;;;;;;;;;30.90;42.80;;;;;;5020869;28;20444;-63
2023/10/23 09:31:38;;;;;;;;;;;30.80;43.40;;;;;;5012776;28;20030;-64
2023/10/23 09:34:04;;;;;;;;;;;30.50;43.20;;;;;;5023069;28;20041;-65
2023/10/23 09:36:31;;;;;;;;;;;30.50;45.80;;;;;;5021652;28;19990;-64
2023/10/23 09:38:58;;;;;;;;;;;30.90;43.20;;;;;;5023879;28;19990;-64
2023/10/23 09:41:24;;;;;;;;;;;31.00;42.80;;;;;;5026024;28;19990;-64
2023/10/23 09:43:50;;;;;;;;;;;31.10;44.30;;;;;;5026675;28;19986;-63
2023/10/23 09:46:18;;;;;;;;;;;31.20;44.40;;;;;;5031006;28;20049;-64
2023/10/23 09:48:44;;;;;;;;;;;31.20;44.40;;;;;;5031127;28;19992;-62
2023/10/23 09:51:16;;;;;;;;;;;31.30;43.30;;;;;;5031704;28;20045;-63
2023/10/23 09:53:47;;;;;;;;;;;31.40;42.10;;;;;;5030258;28;19996;-64
2023/10/23 09:56:15;;;;;;;;;;;31.40;41.80;;;;;;5031456;28;20303;-67
2023/10/23 09:58:45;;;;;;;;;;;31.30;43.60;;;;;;5030862;28;19986;-64
2023/10/23 10:01:11;;;;;;;;;;;31.40;43.30;;;;;;5017554;28;19986;-61
2023/10/23 10:03:39;;;;;;;;;;;31.60;43.00;;;;;;5031622;28;19994;-63
2023/10/23 10:06:09;;;;;;;;;;;31.80;40.50;;;;;;5031660;28;19995;-69
2023/10/23 10:08:40;;;;;;;;;;;31.90;41.20;;;;;;5032259;28;19993;-61
2023/10/23 10:11:06;;;;;;;;;;;32.10;40.80;;;;;;5033012;28;20182;-68
2023/10/23 10:13:33;;;;;;;;;;;32.00;40.30;;;;;;5030344;28;19990;-66
2023/10/23 10:15:59;;;;;;;;;;;32.10;40.20;;;;;;5033545;28;19993;-62
2023/10/23 10:18:25;;;;;;;;;;;32.30;39.90;;;;;;5020476;28;20060;-63
2023/10/23 10:20:55;;;;;;;;;;;32.50;39.40;;;;;;5027595;28;20064;-61
2023/10/23 10:23:21;;;;;;;;;;;32.60;40.50;;;;;;5026406;28;20006;-63
2023/10/23 10:25:47;;;;;;;;;;;32.60;38.50;;;;;;5028368;28;20001;-64
2023/10/23 10:28:12;;;;;;;;;;;32.70;40.20;;;;;;5028720;28;19993;-65
2023/10/23 10:30:45;;;;;;;;;;;32.70;38.80;;;;;;5026981;28;20047;-65
2023/10/23 10:33:20;;;;;;;;;;;32.50;41.50;;;;;;5025475;28;19986;-62
2023/10/23 10:35:52;;;;;;;;;;;32.60;41.90;;;;;;4992107;28;20396;-65
2023/10/23 10:38:25;;;;;;;;;;;32.80;38.90;;;;;;5011826;28;20038;-66
2023/10/23 10:41:04;;;;;;;;;;;32.70;40.20;;;;;;5011614;28;20371;-63
2023/10/23 10:43:29;;;;;;;;;;;32.80;38.80;;;;;;5022726;28;20322;-59
2023/10/23 10:45:57;;;;;;;;;;;32.60;39.40;;;;;;5027085;28;20444;-66
2023/10/23 10:48:24;;;;;;;;;;;32.50;40.90;;;;;;5031080;28;19990;-62
2023/10/23 10:50:51;;;;;;;;;;;32.40;39.20;;;;;;5031524;28;20376;-60
2023/10/23 10:53:18;;;;;;;;;;;32.50;41.00;;;;;;5028944;28;20085;-66
2023/10/23 10:55:47;;;;;;;;;;;32.50;38.80;;;;;;5014565;28;20073;-68
2023/10/23 10:58:13;;;;;;;;;;;32.40;38.70;;;;;;5031940;28;20368;-60
2023/10/23 11:00:39;;;;;;;;;;;31.90;39.00;;;;;;5031170;28;20456;-66
2023/10/23 11:03:05;;;;;;;;;;;32.00;40.30;;;;;;5031398;28;20044;-65
2023/10/23 11:05:32;;;;;;;;;;;32.50;39.10;;;;;;5030074;28;20334;-66
2023/10/23 11:07:58;;;;;;;;;;;32.80;37.80;;;;;;5012888;28;20032;-62
2023/10/23 11:10:23;;;;;;;;;;;33.00;40.60;;;;;;5032125;28;20448;-65
2023/10/23 11:12:52;;;;;;;;;;;33.10;38.80;;;;;;5031243;28;20721;-63
2023/10/23 11:15:17;;;;;;;;;;;33.10;38.80;;;;;;5031873;28;19993;-64
2023/10/23 11:17:43;;;;;;;;;;;33.10;38.30;;;;;;5030532;28;19983;-63
2023/10/23 11:20:10;;;;;;;;;;;33.10;38.70;;;;;;5031214;28;20017;-66
2023/10/23 11:22:42;;;;;;;;;;;33.20;37.20;;;;;;5009650;28;20321;-65
2023/10/23 11:25:09;;;;;;;;;;;33.20;38.80;;;;;;5009482;28;20326;-65
2023/10/23 11:27:35;;;;;;;;;;;33.10;39.10;;;;;;5007797;28;20101;-60
2023/10/23 11:30:00;;;;;;;;;;;33.30;37.40;;;;;;5011812;28;19986;-63
2023/10/23 11:32:27;;;;;;;;;;;33.20;37.60;;;;;;5028455;28;20028;-63
2023/10/23 11:34:58;;;;;;;;;;;33.30;38.70;;;;;;5028775;28;20412;-61
2023/10/23 11:37:24;;;;;;;;;;;33.50;37.30;;;;;;5028555;28;19982;-61
2023/10/23 11:39:50;;;;;;;;;;;33.50;35.20;;;;;;5029578;28;20024;-59
2023/10/23 11:42:16;;;;;;;;;;;33.40;36.60;;;;;;5031660;28;20375;-61
2023/10/23 11:44:41;;;;;;;;;;;33.30;34.90;;;;;;5034832;28;19985;-57
2023/10/23 11:47:07;;;;;;;;;;;33.30;36.00;;;;;;5035813;28;19983;-59
2023/10/23 11:49:33;;;;;;;;;;;33.30;35.50;;;;;;5035545;28;19982;-61
2023/10/23 11:51:59;;;;;;;;;;;33.30;37.30;;;;;;5035881;28;20022;-59
2023/10/23 11:54:25;;;;;;;;;;;33.50;35.50;;;;;;5036094;28;20012;-64
2023/10/23 11:56:50;;;;;;;;;;;33.70;36.20;;;;;;5036359;28;19986;-60
2023/10/23 11:59:17;;;;;;;;;;;33.60;35.10;;;;;;5036690;28;20455;-63
2023/10/23 12:01:43;;;;;;;;;;;33.60;34.90;;;;;;5037048;28;19987;-59
2023/10/23 12:04:10;;;;;;;;;;;33.70;34.70;;;;;;5036880;28;19990;-62
2023/10/23 12:06:36;;;;;;;;;;;33.70;35.00;;;;;;5035601;28;19993;-63
2023/10/23 12:09:02;;;;;;;;;;;33.60;34.40;;;;;;5036173;28;20403;-64
2023/10/23 12:11:29;;;;;;;;;;;33.50;36.00;;;;;;5036801;28;20082;-63
2023/10/23 12:13:54;;;;;;;;;;;33.30;34.00;;;;;;5036761;28;20447;-61
2023/10/23 12:16:20;;;;;;;;;;;33.00;34.80;;;;;;5036250;28;19983;-62
2023/10/23 12:18:45;;;;;;;;;;;33.10;37.60;;;;;;5030532;28;20890;-60
2023/10/23 12:21:12;;;;;;;;;;;33.50;35.00;;;;;;5030044;28;20014;-64
2023/10/23 12:23:37;;;;;;;;;;;33.70;36.10;;;;;;5036247;28;20002;-59
2023/10/23 12:26:03;;;;;;;;;;;33.70;35.30;;;;;;5036467;28;19986;-64
2023/10/23 12:28:28;;;;;;;;;;;33.70;36.40;;;;;;5036511;28;19989;-66
2023/10/23 12:30:54;;;;;;;;;;;33.40;34.30;;;;;;5036455;28;20429;-62
2023/10/23 12:33:20;;;;;;;;;;;33.40;35.30;;;;;;5036451;28;20444;-63
2023/10/23 12:35:45;;;;;;;;;;;33.40;33.00;;;;;;5036065;28;20033;-63
2023/10/23 12:38:11;;;;;;;;;;;33.60;34.00;;;;;;5034509;28;19986;-58
2023/10/23 12:40:38;;;;;;;;;;;33.70;33.70;;;;;;5034937;28;19986;-60
2023/10/23 12:43:04;;;;;;;;;;;33.60;35.90;;;;;;5035421;28;20060;-64
2023/10/23 12:45:30;;;;;;;;;;;33.70;34.60;;;;;;5035943;28;20025;-62
2023/10/23 12:47:55;;;;;;;;;;;34.00;33.60;;;;;;5035511;28;19982;-66
2023/10/23 12:50:21;;;;;;;;;;;34.10;31.30;;;;;;5036321;28;19986;-63
2023/10/23 12:52:46;;;;;;;;;;;34.10;32.30;;;;;;5036039;28;19986;-63
2023/10/23 12:55:13;;;;;;;;;;;34.20;31.90;;;;;;5034854;28;20052;-64
2023/10/23 12:57:39;;;;;;;;;;;34.30;33.10;;;;;;5035911;28;19982;-64
2023/10/23 13:00:06;;;;;;;;;;;34.30;33.80;;;;;;5035818;28;19986;-63
2023/10/23 13:02:32;;;;;;;;;;;34.20;32.60;;;;;;5035496;28;20006;-62
2023/10/23 13:04:57;;;;;;;;;;;34.40;33.70;;;;;;5035725;28;19997;-58
2023/10/23 13:07:23;;;;;;;;;;;34.50;34.70;;;;;;5017904;28;19986;-65
2023/10/23 13:09:48;;;;;;;;;;;34.40;33.90;;;;;;5035645;28;19982;-65
2023/10/23 13:12:14;;;;;;;;;;;34.10;34.80;;;;;;5035911;28;19983;-64
2023/10/23 13:14:40;;;;;;;;;;;34.00;33.70;;;;;;5035810;28;19983;-64
2023/10/23 13:17:05;;;;;;;;;;;33.90;33.20;;;;;;5035411;28;20483;-66
2023/10/23 13:19:31;;;;;;;;;;;34.00;32.90;;;;;;5035275;28;20014;-62
2023/10/23 13:21:56;;;;;;;;;;;33.90;34.20;;;;;;5035294;28;20494;-61
2023/10/23 13:24:22;;;;;;;;;;;33.60;36.10;;;;;;5035339;28;20411;-64
2023/10/23 13:26:48;;;;;;;;;;;32.90;36.40;;;;;;5035335;28;19982;-62
2023/10/23 13:29:13;;;;;;;;;;;32.80;37.40;;;;;;5035476;28;20425;-61
2023/10/23 13:31:39;;;;;;;;;;;32.90;36.40;;;;;;5035182;28;19989;-62
2023/10/23 13:34:04;;;;;;;;;;;32.70;36.80;;;;;;5035131;28;19990;-61
2023/10/23 13:36:30;;;;;;;;;;;31.90;37.90;;;;;;5035809;28;19986;-60
2023/10/23 13:38:56;;;;;;;;;;;31.50;38.80;;;;;;5035402;28;20156;-63
2023/10/23 13:41:22;;;;;;;;;;;31.20;42.00;;;;;;5035217;28;20025;-63
2023/10/23 13:43:47;;;;;;;;;;;31.00;40.20;;;;;;5034953;28;20364;-64
2023/10/23 13:46:15;;;;;;;;;;;30.90;41.70;;;;;;5034844;28;19982;-59
2023/10/23 13:48:40;;;;;;;;;;;30.90;41.00;;;;;;5035012;28;19982;-63
2023/10/23 13:51:06;;;;;;;;;;;30.50;40.40;;;;;;5035006;28;19990;-60
2023/10/23 13:53:32;;;;;;;;;;;30.30;41.50;;;;;;5034849;28;19986;-62
2023/10/23 13:55:58;;;;;;;;;;;30.10;43.00;;;;;;5034754;28;20443;-61
2023/10/23 13:58:23;;;;;;;;;;;30.00;41.90;;;;;;5034600;28;20037;-60
2023/10/23 14:00:50;;;;;;;;;;;29.70;43.50;;;;;;5034498;28;19983;-64
2023/10/23 14:03:16;;;;;;;;;;;29.70;43.90;;;;;;5034911;28;20383;-63
2023/10/23 14:05:42;;;;;;;;;;;29.40;44.40;;;;;;5034339;28;19986;-62
2023/10/23 14:08:07;;;;;;;;;;;29.20;43.90;;;;;;5035003;28;20039;-59
2023/10/23 14:10:34;;;;;;;;;;;28.70;45.00;;;;;;5034594;28;19982;-59